Time;durP1;ratioP1;P1;durP2;ratioP2;P2;SDS_P1;SDS_P2;PMS_P1;PMS_P2;Temp;Humidity;BMP_temperature;BMP_pressure;BME280_temperature;BME280_humidity;BME280_pressure;Samples;Min_cycle;Max_cycle;Signal;HPM_P1;HPM_P2
2024/01/28 00:01:50;;;;;;;12.82;6.00;;;5.20;99.90;;;4.42;100.00;102263.44;4217264;28;20028;-71
2024/01/28 00:03:51;;;;;;;14.75;7.18;;;5.20;99.90;;;4.40;100.00;102259.22;4216462;28;20022;-71
2024/01/28 00:05:52;;;;;;;9.70;5.90;;;5.20;99.90;;;4.41;100.00;102256.53;4201811;28;20029;-71
2024/01/28 00:07:53;;;;;;;11.63;5.97;;;5.20;99.90;;;4.41;100.00;102266.16;4207676;28;20054;-71
2024/01/28 00:09:54;;;;;;;8.38;5.35;;;5.20;99.90;;;4.41;100.00;102246.09;4218825;28;20112;-71
2024/01/28 00:11:55;;;;;;;12.10;6.05;;;5.20;99.90;;;4.41;100.00;102251.31;4215374;28;20446;-71
2024/01/28 00:13:56;;;;;;;12.20;6.75;;;5.20;99.90;;;4.40;100.00;102246.16;4213263;28;20445;-71
2024/01/28 00:15:56;;;;;;;10.93;5.43;;;5.20;99.90;;;4.40;100.00;102241.78;4201864;28;20028;-71
2024/01/28 00:17:57;;;;;;;8.38;6.03;;;5.20;99.90;;;4.36;100.00;102242.84;4201600;28;20446;-71
2024/01/28 00:19:58;;;;;;;9.95;5.35;;;5.20;99.90;;;4.37;100.00;102244.56;4217304;28;20016;-71
2024/01/28 00:22:00;;;;;;;7.55;5.75;;;5.20;99.90;;;4.34;100.00;102233.41;4201644;28;20028;-71
2024/01/28 00:24:04;;;;;;;13.45;6.45;;;5.20;99.90;;;4.36;100.00;102237.63;4207532;28;20019;-72
2024/01/28 00:26:05;;;;;;;12.75;6.65;;;5.10;99.90;;;4.35;100.00;102232.50;4201749;28;20024;-71
2024/01/28 00:28:06;;;;;;;12.10;5.65;;;5.10;99.90;;;4.32;100.00;102236.13;4217212;28;20410;-71
2024/01/28 00:30:09;;;;;;;9.85;6.40;;;5.10;99.90;;;4.32;100.00;102235.28;4200352;28;20117;-71
2024/01/28 00:32:09;;;;;;;8.00;5.40;;;5.10;99.90;;;4.30;100.00;102234.50;4200300;28;20032;-71
2024/01/28 00:34:10;;;;;;;8.82;5.07;;;5.10;99.90;;;4.26;100.00;102231.22;4202095;28;20050;-71
2024/01/28 00:36:17;;;;;;;13.68;6.53;;;5.10;99.90;;;4.23;100.00;102226.16;4209698;28;20111;-71
2024/01/28 00:38:18;;;;;;;10.80;5.70;;;5.00;99.90;;;4.21;100.00;102222.75;4200288;28;20068;-71
2024/01/28 00:40:20;;;;;;;8.00;5.75;;;5.00;99.90;;;4.20;100.00;102217.63;4208337;28;20426;-71
2024/01/28 00:42:21;;;;;;;11.27;5.88;;;5.00;99.90;;;4.19;100.00;102219.38;4218376;28;20364;-71
2024/01/28 00:44:22;;;;;;;9.27;5.63;;;5.00;99.90;;;4.18;100.00;102214.25;4229252;28;20387;-71
2024/01/28 00:46:23;;;;;;;10.93;6.97;;;5.00;99.90;;;4.14;100.00;102205.72;4211766;28;20048;-71
2024/01/28 00:48:23;;;;;;;11.52;5.45;;;5.00;99.90;;;4.14;100.00;102202.25;4217217;28;20032;-71
2024/01/28 00:50:24;;;;;;;12.25;5.55;;;5.00;99.90;;;4.13;100.00;102205.78;4201606;28;20021;-71
2024/01/28 00:52:25;;;;;;;15.00;7.18;;;4.90;99.90;;;4.12;100.00;102206.72;4201482;28;20104;-71
2024/01/28 00:54:26;;;;;;;8.95;5.18;;;4.90;99.90;;;4.09;100.00;102201.66;4218840;28;20043;-71
2024/01/28 00:56:27;;;;;;;8.15;4.95;;;4.90;99.90;;;4.08;100.00;102205.19;4201686;28;20028;-71
2024/01/28 00:58:29;;;;;;;9.93;5.75;;;4.90;99.90;;;4.06;100.00;102197.41;4217051;28;20472;-71
2024/01/28 01:00:31;;;;;;;13.63;6.53;;;4.90;99.90;;;4.05;100.00;102195.75;4201116;28;20056;-71
2024/01/28 01:02:32;;;;;;;10.32;5.93;;;4.80;99.90;;;4.05;100.00;102197.50;4204253;28;20058;-71
2024/01/28 01:04:32;;;;;;;10.05;6.85;;;4.80;99.90;;;4.04;100.00;102199.28;4217623;28;20032;-71
2024/01/28 01:06:33;;;;;;;12.15;5.40;;;4.90;99.90;;;4.04;100.00;102194.06;4204483;28;20031;-71
2024/01/28 01:08:34;;;;;;;9.45;6.18;;;4.80;99.90;;;4.02;100.00;102182.84;4216598;28;20032;-71
2024/01/28 01:10:35;;;;;;;12.95;7.25;;;4.80;99.90;;;4.02;100.00;102190.69;4204900;28;20408;-71
2024/01/28 01:12:36;;;;;;;12.10;6.90;;;4.80;99.90;;;4.02;100.00;102182.00;4204519;28;20031;-71
2024/01/28 01:14:37;;;;;;;12.68;6.40;;;4.80;99.90;;;4.00;100.00;102179.50;4213450;28;20436;-71
2024/01/28 01:16:38;;;;;;;12.98;7.63;;;4.80;99.90;;;3.98;100.00;102173.47;4204128;28;20024;-71
2024/01/28 01:18:39;;;;;;;15.07;7.43;;;4.80;99.90;;;3.97;100.00;102170.97;4204198;28;20028;-71
2024/01/28 01:20:40;;;;;;;12.30;6.20;;;4.80;99.90;;;3.96;100.00;102164.91;4219927;28;20024;-71
2024/01/28 01:22:40;;;;;;;12.07;7.88;;;4.70;99.90;;;3.95;100.00;102163.19;4203040;28;20029;-71
2024/01/28 01:24:41;;;;;;;9.48;6.43;;;4.80;99.90;;;3.96;100.00;102170.13;4215095;28;20464;-71
2024/01/28 01:26:42;;;;;;;11.40;6.88;;;4.80;99.90;;;3.92;100.00;102158.13;4206543;28;20557;-71
2024/01/28 01:28:43;;;;;;;12.63;5.53;;;4.70;99.90;;;3.92;100.00;102158.13;4202966;28;20016;-71
2024/01/28 01:30:44;;;;;;;9.93;5.82;;;4.70;99.90;;;3.89;100.00;102153.06;4219684;28;20027;-71
2024/01/28 01:32:45;;;;;;;11.18;5.78;;;4.70;99.90;;;3.86;100.00;102148.00;4203962;28;20028;-71
2024/01/28 01:34:46;;;;;;;9.43;6.20;;;4.70;99.90;;;3.84;100.00;102140.28;4239023;27;20114;-71
2024/01/28 01:36:46;;;;;;;11.48;5.88;;;4.70;99.90;;;3.83;100.00;102146.41;4204120;28;20032;-71
2024/01/28 01:38:47;;;;;;;13.00;7.47;;;4.70;99.90;;;3.83;100.00;102142.94;4204067;28;20028;-71
2024/01/28 01:40:49;;;;;;;13.30;6.40;;;4.70;99.90;;;3.81;100.00;102142.19;4203987;28;20046;-71
2024/01/28 01:42:50;;;;;;;10.32;6.68;;;4.60;99.90;;;3.81;100.00;102150.03;4203835;28;20035;-71
2024/01/28 01:44:51;;;;;;;12.77;6.22;;;4.60;99.90;;;3.79;100.00;102152.69;4225639;28;20032;-71
2024/01/28 01:46:52;;;;;;;11.95;6.72;;;4.60;99.90;;;3.79;100.00;102149.25;4213153;28;20036;-71
2024/01/28 01:48:53;;;;;;;15.30;7.05;;;4.60;99.90;;;3.78;100.00;102145.81;4203871;28;20074;-71
2024/01/28 01:50:55;;;;;;;12.90;6.93;;;4.60;99.90;;;3.77;100.00;102143.25;4219331;28;20059;-71
2024/01/28 01:52:56;;;;;;;12.82;8.30;;;4.60;99.90;;;3.78;100.00;102144.97;4219512;28;20039;-71
2024/01/28 01:54:57;;;;;;;19.08;9.27;;;4.60;99.90;;;3.78;100.00;102144.97;4219051;28;20491;-71
2024/01/28 01:56:58;;;;;;;11.57;7.85;;;4.60;99.90;;;3.75;100.00;102145.09;4203783;28;20036;-71
2024/01/28 01:58:59;;;;;;;13.48;8.25;;;4.60;99.90;;;3.74;100.00;102138.19;4203846;28;20035;-71
2024/01/28 02:01:01;;;;;;;13.70;6.72;;;4.50;99.90;;;3.71;100.00;102138.34;4203693;28;20118;-71
2024/01/28 02:03:03;;;;;;;19.70;8.38;;;4.50;99.90;;;3.68;100.00;102144.56;4219082;28;20020;-71
2024/01/28 02:05:04;;;;;;;15.07;9.07;;;4.50;99.90;;;3.64;100.00;102142.22;4213796;28;20033;-71
2024/01/28 02:07:06;;;;;;;16.92;9.90;;;4.40;99.90;;;3.61;100.00;102126.72;4219110;28;20027;-71
2024/01/28 02:09:07;;;;;;;23.23;14.43;;;4.40;99.90;;;3.60;100.00;102125.84;4216054;28;20035;-71
2024/01/28 02:11:08;;;;;;;21.40;14.30;;;4.40;99.90;;;3.59;100.00;102123.31;4203446;28;20033;-71
2024/01/28 02:13:09;;;;;;;26.85;17.08;;;4.40;99.90;;;3.57;100.00;102125.16;4202812;28;20101;-71
2024/01/28 02:15:11;;;;;;;24.60;16.30;;;4.40;99.90;;;3.52;100.00;102117.59;4210529;28;20025;-71
2024/01/28 02:17:12;;;;;;;28.70;18.63;;;4.40;99.90;;;3.52;100.00;102119.34;4218823;28;20039;-71
2024/01/28 02:19:12;;;;;;;30.95;20.98;;;4.40;99.90;;;3.55;100.00;102121.81;4204429;28;20053;-71
2024/01/28 02:21:13;;;;;;;29.45;20.52;;;4.30;99.90;;;3.50;100.00;102115.94;4212473;28;20040;-71
2024/01/28 02:23:18;;;;;;;23.00;16.80;;;4.30;99.90;;;3.53;100.00;102114.03;4220004;28;20016;-71
2024/01/28 02:25:18;;;;;;;;;;;4.30;99.90;;;3.48;100.00;102118.66;4203577;28;20024;-71
2024/01/28 02:27:20;;;;;;;19.33;12.95;;;4.30;99.90;;;3.47;100.00;102114.34;4202346;28;20362;-71
2024/01/28 02:29:20;;;;;;;21.90;14.02;;;4.30;99.90;;;3.45;100.00;102110.13;4219047;28;20031;-71
2024/01/28 02:31:21;;;;;;;23.33;14.27;;;4.30;99.90;;;3.39;100.00;102108.69;4203027;28;20406;-71
2024/01/28 02:33:22;;;;;;;20.38;12.45;;;4.20;99.90;;;3.41;100.00;102105.97;4206810;28;20467;-71
2024/01/28 02:35:23;;;;;;;17.75;10.90;;;4.20;99.90;;;3.37;100.00;102107.06;4213239;28;20036;-71
2024/01/28 02:37:24;;;;;;;17.83;10.82;;;4.20;99.90;;;3.35;100.00;102107.97;4203116;28;20392;-71
2024/01/28 02:39:25;;;;;;;19.17;12.38;;;4.20;99.90;;;3.35;100.00;102094.09;4203213;28;20025;-71
2024/01/28 02:41:25;;;;;;;14.85;9.60;;;4.20;99.90;;;3.35;100.00;102096.69;4218427;28;20024;-71
2024/01/28 02:43:26;;;;;;;15.90;8.18;;;4.20;99.90;;;3.35;100.00;102081.06;4205635;28;20033;-71
2024/01/28 02:45:27;;;;;;;12.50;7.78;;;4.20;99.90;;;3.38;100.00;102087.88;4226727;27;20031;-71
2024/01/28 02:47:28;;;;;;;16.60;8.82;;;4.20;99.90;;;3.40;100.00;102091.28;4208328;28;20055;-71
2024/01/28 02:49:29;;;;;;;12.82;8.13;;;4.20;99.90;;;3.36;100.00;102087.97;4203026;28;20024;-71
2024/01/28 02:51:30;;;;;;;16.80;9.30;;;4.20;99.90;;;3.33;100.00;102086.38;4202947;28;20032;-71
2024/01/28 02:53:30;;;;;;;13.40;9.00;;;4.10;99.90;;;3.32;100.00;102086.41;4220028;28;20074;-71
2024/01/28 02:55:31;;;;;;;13.63;7.88;;;4.10;99.90;;;3.26;100.00;102077.16;4208955;28;20032;-71
2024/01/28 02:57:32;;;;;;;13.10;7.65;;;4.10;99.90;;;3.22;100.00;102072.19;4218272;28;20035;-71
2024/01/28 02:59:33;;;;;;;10.10;6.57;;;4.10;99.90;;;3.21;100.00;102080.91;4202804;28;20385;-71
2024/01/28 03:01:34;;;;;;;12.30;6.85;;;4.10;99.90;;;3.22;100.00;102078.25;4218084;28;20395;-71
2024/01/28 03:03:34;;;;;;;10.32;6.32;;;4.00;99.90;;;3.21;100.00;102076.53;4206841;28;20446;-71
2024/01/28 03:05:35;;;;;;;8.82;6.15;;;4.00;99.90;;;3.21;100.00;102078.31;4209220;28;20028;-71
2024/01/28 03:07:36;;;;;;;8.75;5.68;;;4.00;99.90;;;3.17;100.00;102074.16;4206419;28;20024;-71
2024/01/28 03:09:37;;;;;;;13.05;6.68;;;4.00;99.90;;;3.13;100.00;102070.88;4212420;28;20434;-71
2024/01/28 03:11:38;;;;;;;10.82;6.55;;;3.90;99.90;;;3.09;100.00;102071.94;4202520;28;20028;-71
2024/01/28 03:13:39;;;;;;;11.63;6.47;;;3.90;99.90;;;3.05;100.00;102069.53;4207529;28;20559;-71
2024/01/28 03:15:40;;;;;;;9.77;5.97;;;3.90;99.90;;;3.04;100.00;102062.66;4202611;28;20066;-71
2024/01/28 03:17:40;;;;;;;10.93;6.55;;;3.80;99.90;;;3.02;100.00;102070.53;4202212;28;20055;-71
2024/01/28 03:19:41;;;;;;;10.88;5.78;;;3.80;99.90;;;3.01;100.00;102055.84;4218192;28;20024;-71
2024/01/28 03:21:42;;;;;;;9.90;5.75;;;3.80;99.90;;;2.96;100.00;102052.59;4202099;28;20028;-71
2024/01/28 03:23:43;;;;;;;10.85;6.45;;;3.80;99.90;;;2.98;100.00;102060.34;4217791;28;20024;-71
2024/01/28 03:25:44;;;;;;;8.70;6.00;;;3.80;99.90;;;2.97;100.00;102050.84;4202204;28;20028;-71
2024/01/28 03:27:44;;;;;;;12.02;6.22;;;3.80;99.90;;;2.94;100.00;102062.25;4210366;28;20404;-71
2024/01/28 03:29:45;;;;;;;9.63;5.85;;;3.80;99.90;;;2.88;100.00;102054.75;4202231;28;20392;-71
2024/01/28 03:31:46;;;;;;;9.82;6.05;;;3.80;99.90;;;2.86;100.00;102055.75;4201880;28;20081;-71
2024/01/28 03:33:47;;;;;;;11.88;5.90;;;3.70;99.90;;;2.85;100.00;102049.69;4208984;28;20020;-71
2024/01/28 03:35:48;;;;;;;9.15;5.80;;;3.70;99.90;;;2.86;100.00;102040.09;4225814;28;20476;-71
2024/01/28 03:37:50;;;;;;;10.23;5.88;;;3.60;99.90;;;2.85;100.00;102044.47;4184355;28;20035;-71
2024/01/28 03:39:50;;;;;;;11.50;6.07;;;3.70;99.90;;;2.83;100.00;102037.66;4202133;28;20028;-71
2024/01/28 03:41:51;;;;;;;8.95;4.80;;;3.70;99.90;;;2.83;100.00;102035.88;4217940;28;20383;-72
2024/01/28 03:43:52;;;;;;;9.60;5.75;;;3.70;99.90;;;2.83;100.00;102029.81;4209894;28;20393;-71
2024/01/28 03:45:53;;;;;;;10.25;5.95;;;3.70;99.90;;;2.85;100.00;102030.59;4221760;28;20430;-71
2024/01/28 03:47:54;;;;;;;10.15;5.72;;;3.70;99.90;;;2.87;100.00;102029.59;4203637;28;20021;-71
2024/01/28 03:49:55;;;;;;;8.32;6.40;;;3.70;99.90;;;2.88;100.00;102026.06;4202088;28;20020;-71
2024/01/28 03:51:55;;;;;;;13.65;5.80;;;3.70;99.90;;;2.90;100.00;102016.41;4202013;28;20028;-71
2024/01/28 03:53:57;;;;;;;9.25;5.68;;;3.70;99.90;;;2.89;100.00;102016.50;4210509;28;20027;-71
2024/01/28 03:55:58;;;;;;;6.97;5.50;;;3.70;99.90;;;2.88;100.00;102015.66;4206689;28;20085;-71
2024/01/28 03:57:59;;;;;;;12.35;6.03;;;3.70;99.90;;;2.87;100.00;102013.94;4201966;28;20021;-71
2024/01/28 04:00:00;;;;;;;7.30;4.72;;;3.70;99.90;;;2.86;100.00;102009.69;4201880;28;20069;-71
2024/01/28 04:02:01;;;;;;;7.97;5.80;;;3.70;99.90;;;2.84;100.00;102011.50;4201680;28;20028;-71
2024/01/28 04:04:02;;;;;;;7.85;5.05;;;3.70;99.90;;;2.79;100.00;101995.25;4211161;28;20031;-71
2024/01/28 04:06:03;;;;;;;9.50;5.20;;;3.70;99.90;;;2.81;100.00;102001.22;4201945;28;20039;-71
2024/01/28 04:08:08;;;;;;;12.23;6.00;;;3.60;99.90;;;2.77;100.00;101992.75;4209508;28;20074;-71
2024/01/28 04:10:09;;;;;;;13.20;5.55;;;3.60;99.90;;;2.77;100.00;101992.75;4205886;28;20028;-71
2024/01/28 04:12:10;;;;;;;10.90;6.72;;;3.60;99.90;;;2.73;100.00;101988.59;4217265;28;20736;-71
2024/01/28 04:14:10;;;;;;;13.73;5.90;;;3.60;99.90;;;2.72;100.00;101983.44;4204581;28;20035;-71
2024/01/28 04:16:11;;;;;;;12.45;6.03;;;3.60;99.90;;;2.72;100.00;101984.28;4201660;28;20029;-71
2024/01/28 04:18:12;;;;;;;10.85;5.80;;;3.60;99.90;;;2.73;100.00;101977.31;4217362;28;20028;-71
2024/01/28 04:20:13;;;;;;;11.02;6.00;;;3.60;99.90;;;2.74;100.00;101985.09;4201550;28;20484;-71
2024/01/28 04:22:14;;;;;;;9.52;5.55;;;3.60;99.90;;;2.73;100.00;101979.94;4201742;28;20361;-71
2024/01/28 04:24:15;;;;;;;12.52;5.70;;;3.60;99.90;;;2.72;100.00;101978.22;4214885;28;20524;-71
2024/01/28 04:26:16;;;;;;;10.70;6.43;;;3.60;99.90;;;2.74;100.00;101976.41;4210627;28;20021;-71
2024/01/28 04:28:17;;;;;;;10.65;6.30;;;3.60;99.90;;;2.74;100.00;101976.41;4215834;28;20028;-71
2024/01/28 04:30:18;;;;;;;10.05;6.70;;;3.60;99.90;;;2.73;100.00;101966.91;4217243;28;20427;-71
2024/01/28 04:32:19;;;;;;;9.30;5.00;;;3.60;99.90;;;2.75;100.00;101968.50;4217124;28;20085;-71
2024/01/28 04:34:22;;;;;;;10.27;5.47;;;3.60;99.90;;;2.73;100.00;101964.28;4217148;28;20027;-71
2024/01/28 04:36:26;;;;;;;8.65;5.85;;;3.60;99.90;;;2.73;100.00;101966.91;4205625;28;20454;-71
2024/01/28 04:38:26;;;;;;;7.65;5.28;;;3.60;99.90;;;2.70;100.00;101959.25;4205086;28;20078;-71
2024/01/28 04:40:27;;;;;;;9.55;5.88;;;3.50;99.90;;;2.67;100.00;101955.03;4204933;28;20033;-71
2024/01/28 04:42:28;;;;;;;9.18;5.35;;;3.50;99.90;;;2.65;100.00;101950.81;4225135;28;20030;-71
2024/01/28 04:44:29;;;;;;;10.65;5.97;;;3.50;99.90;;;2.66;100.00;101952.47;4215494;28;20078;-71
2024/01/28 04:46:30;;;;;;;9.93;5.68;;;3.50;99.90;;;2.65;100.00;101948.22;4213233;28;20081;-71
2024/01/28 04:48:31;;;;;;;9.35;5.03;;;3.50;99.90;;;2.66;100.00;101948.13;4221706;28;20398;-71
2024/01/28 04:50:31;;;;;;;9.27;5.93;;;3.50;99.90;;;2.66;100.00;101947.28;4221726;28;20028;-71
2024/01/28 04:52:32;;;;;;;8.15;5.78;;;3.50;99.90;;;2.68;100.00;101950.66;4220351;28;20035;-71
2024/01/28 04:54:33;;;;;;;11.32;5.57;;;3.50;99.90;;;2.69;100.00;101944.50;4223716;28;20036;-71
2024/01/28 04:56:34;;;;;;;9.90;5.47;;;3.50;99.90;;;2.66;100.00;101945.50;4203449;28;20495;-71
2024/01/28 04:58:35;;;;;;;7.55;5.72;;;3.50;99.90;;;2.66;100.00;101937.69;4203310;28;20466;-71
2024/01/28 05:00:36;;;;;;;7.28;4.90;;;3.50;99.90;;;2.65;100.00;101930.81;4203104;28;20403;-71
2024/01/28 05:02:38;;;;;;;10.00;5.65;;;3.50;99.90;;;2.65;100.00;101937.78;4203221;28;20021;-71
2024/01/28 05:04:38;;;;;;;8.95;6.13;;;3.40;99.90;;;2.67;100.00;101938.56;4210945;28;20029;-71
2024/01/28 05:06:39;;;;;;;8.30;5.55;;;3.40;99.90;;;2.67;100.00;101933.34;4204514;28;20027;-71
2024/01/28 05:08:40;;;;;;;10.73;5.95;;;3.50;99.90;;;2.67;100.00;101926.38;4217028;28;20113;-71
2024/01/28 05:10:41;;;;;;;8.32;5.65;;;3.50;99.90;;;2.66;100.00;101926.44;4204990;28;20024;-71
2024/01/28 05:12:45;;;;;;;10.90;5.20;;;3.50;99.90;;;2.66;100.00;101922.06;4204590;28;20115;-71
2024/01/28 05:14:47;;;;;;;9.20;5.70;;;3.50;99.90;;;2.64;100.00;101923.06;4220294;28;20030;-71
2024/01/28 05:16:48;;;;;;;12.93;6.07;;;3.50;99.90;;;2.65;100.00;101924.78;4219812;28;20487;-71
2024/01/28 05:18:48;;;;;;;9.90;5.65;;;3.50;99.90;;;2.63;100.00;101919.63;4202866;28;20041;-71
2024/01/28 05:20:49;;;;;;;7.30;4.97;;;3.40;99.90;;;2.63;100.00;101913.56;4204254;28;20409;-71
2024/01/28 05:22:51;;;;;;;8.27;5.32;;;3.40;99.90;;;2.63;100.00;101911.81;4204262;28;20036;-71
2024/01/28 05:24:53;;;;;;;8.20;5.18;;;3.40;99.90;;;2.61;100.00;101918.00;4225884;28;20402;-71
2024/01/28 05:26:54;;;;;;;8.82;5.30;;;3.40;99.90;;;2.61;100.00;101912.81;4205196;28;20078;-71
2024/01/28 05:28:57;;;;;;;11.90;5.40;;;3.40;99.90;;;2.59;100.00;101909.44;4202826;28;20503;-71
2024/01/28 05:30:58;;;;;;;10.80;5.60;;;3.40;99.90;;;2.57;100.00;101909.50;4204136;28;20044;-71
2024/01/28 05:32:59;;;;;;;7.65;5.95;;;3.40;99.90;;;2.56;100.00;101904.38;4204131;28;20036;-71
2024/01/28 05:35:03;;;;;;;10.77;5.53;;;3.40;99.90;;;2.53;100.00;101909.75;4223075;28;20063;-71
2024/01/28 05:37:04;;;;;;;13.93;6.63;;;3.40;99.90;;;2.53;100.00;101905.38;4223759;28;20020;-71
2024/01/28 05:39:05;;;;;;;8.27;5.18;;;3.40;99.90;;;2.52;100.00;101913.25;4204231;28;20067;-71
2024/01/28 05:41:10;;;;;;;11.73;6.07;;;3.40;99.90;;;2.48;100.00;101896.94;4203928;28;20028;-71
2024/01/28 05:43:10;;;;;;;12.00;6.68;;;3.40;99.90;;;2.49;100.00;101901.25;4204099;28;20464;-71
2024/01/28 05:45:11;;;;;;;10.35;6.00;;;3.40;99.90;;;2.47;100.00;101894.44;4220534;28;20030;-71
2024/01/28 05:47:12;;;;;;;11.00;6.05;;;3.30;99.90;;;2.47;100.00;101895.28;4208918;28;20041;-71
2024/01/28 05:49:13;;;;;;;7.72;5.00;;;3.30;99.90;;;2.48;100.00;101888.31;4202716;28;20029;-71
2024/01/28 05:51:14;;;;;;;10.02;4.97;;;3.30;99.90;;;2.48;100.00;101891.72;4203874;28;20032;-71
2024/01/28 05:53:15;;;;;;;9.27;5.30;;;3.30;99.90;;;2.43;100.00;101882.47;4219525;28;20024;-71
2024/01/28 05:55:15;;;;;;;8.63;5.43;;;3.30;99.90;;;2.42;100.00;101884.22;4214151;28;20032;-71
2024/01/28 05:57:16;;;;;;;7.93;5.10;;;3.30;99.90;;;2.40;100.00;101877.41;4219671;28;20028;-71
2024/01/28 05:59:17;;;;;;;10.85;6.50;;;3.30;99.90;;;2.38;100.00;101876.66;4219422;28;20047;-71
2024/01/28 06:01:18;;;;;;;9.95;6.28;;;3.20;99.90;;;2.37;100.00;101880.16;4219269;28;20032;-71
2024/01/28 06:03:19;;;;;;;15.23;6.07;;;3.20;99.90;;;2.33;100.00;101873.44;4212294;28;20033;-71
2024/01/28 06:05:20;;;;;;;10.55;5.60;;;3.20;99.90;;;2.33;100.00;101873.44;4207190;28;20020;-71
2024/01/28 06:07:20;;;;;;;11.27;5.63;;;3.20;99.90;;;2.29;100.00;101874.50;4205227;28;20078;-71
2024/01/28 06:09:21;;;;;;;8.70;5.53;;;3.20;99.90;;;2.31;100.00;101873.50;4214414;28;20059;-71
2024/01/28 06:11:22;;;;;;;12.63;6.57;;;3.10;99.90;;;2.29;100.00;101874.50;4203908;28;20399;-71
2024/01/28 06:13:23;;;;;;;8.63;5.15;;;3.20;99.90;;;2.28;100.00;101868.44;4219210;28;20024;-71
2024/01/28 06:15:24;;;;;;;7.85;5.05;;;3.10;99.90;;;2.27;100.00;101865.94;4229895;28;20548;-71
2024/01/28 06:17:25;;;;;;;9.07;5.45;;;3.10;99.90;;;2.27;100.00;101861.53;4203323;28;20029;-71
2024/01/28 06:19:26;;;;;;;10.93;6.38;;;3.10;99.90;;;2.28;100.00;101867.59;4203461;28;20032;-71
2024/01/28 06:21:27;;;;;;;8.18;6.13;;;3.10;99.90;;;2.28;100.00;101859.78;4203338;28;20102;-71
2024/01/28 06:23:27;;;;;;;9.07;5.55;;;3.10;99.90;;;2.28;100.00;101862.41;4203238;28;20078;-71
2024/01/28 06:25:29;;;;;;;8.95;5.28;;;3.10;99.90;;;2.27;100.00;101852.94;4225513;28;20029;-71
2024/01/28 06:27:29;;;;;;;7.88;5.30;;;3.10;99.90;;;2.27;100.00;101855.53;4203395;28;20039;-71
2024/01/28 06:29:30;;;;;;;10.05;5.53;;;3.10;99.90;;;2.29;100.00;101874.50;4203278;28;20032;-71
2024/01/28 06:31:31;;;;;;;9.45;5.30;;;3.10;99.90;;;2.25;100.00;101858.19;4220965;28;20050;-71
2024/01/28 06:33:32;;;;;;;7.95;5.60;;;3.10;99.90;;;2.28;100.00;101862.41;4188747;28;20032;-71
2024/01/28 06:35:33;;;;;;;6.38;4.43;;;3.10;99.90;;;2.30;100.00;101858.78;4224969;28;20038;-71
2024/01/28 06:37:34;;;;;;;7.70;5.07;;;3.10;99.90;;;2.34;100.00;101859.50;4225331;28;20028;-71
2024/01/28 06:39:35;;;;;;;8.15;5.50;;;3.10;99.90;;;2.32;100.00;101856.13;4219799;28;20024;-71
2024/01/28 06:41:37;;;;;;;10.43;6.07;;;3.10;99.90;;;2.35;100.00;101854.22;4218564;28;20043;-71
2024/01/28 06:43:38;;;;;;;9.73;5.45;;;3.20;99.90;;;2.36;100.00;101855.06;4219882;28;20020;-71
2024/01/28 06:45:39;;;;;;;10.30;5.05;;;3.20;99.90;;;2.36;100.00;101860.28;4223693;28;20414;-71
2024/01/28 06:47:40;;;;;;;11.45;5.75;;;3.20;99.90;;;2.34;100.00;101868.16;4206259;28;20443;-71
2024/01/28 06:49:41;;;;;;;11.85;5.90;;;3.20;99.90;;;2.31;100.00;101862.25;4202937;28;20027;-71
2024/01/28 06:51:42;;;;;;;13.05;5.72;;;3.20;99.90;;;2.30;100.00;101868.41;4218616;28;20108;-71
2024/01/28 06:53:44;;;;;;;14.43;6.30;;;3.10;99.90;;;2.29;100.00;101874.50;4202646;28;20029;-71
2024/01/28 06:55:45;;;;;;;12.70;5.90;;;3.10;99.90;;;2.26;100.00;101864.25;4210133;28;20447;-71
2024/01/28 06:57:46;;;;;;;10.23;5.57;;;3.10;99.90;;;2.24;100.00;101861.69;4202246;28;20032;-71
2024/01/28 06:59:47;;;;;;;9.15;5.47;;;3.10;99.90;;;2.19;100.00;101872.34;4202996;28;20085;-71
2024/01/28 07:01:48;;;;;;;7.95;5.20;;;3.10;99.90;;;2.15;100.00;101862.19;4202610;28;20067;-71
2024/01/28 07:03:50;;;;;;;11.98;5.78;;;3.00;99.90;;;2.16;100.00;101863.84;4203149;28;20024;-71
2024/01/28 07:05:51;;;;;;;8.65;5.15;;;3.00;99.90;;;2.12;100.00;101857.94;4204106;28;20039;-71
2024/01/28 07:07:52;;;;;;;8.38;5.50;;;2.90;99.90;;;2.10;100.00;101857.19;4224810;28;20012;-71
2024/01/28 07:09:53;;;;;;;8.30;5.50;;;3.00;99.90;;;2.07;100.00;101851.28;4210100;28;20025;-71
2024/01/28 07:11:54;;;;;;;8.07;4.72;;;2.90;99.90;;;2.06;100.00;101850.44;4218579;28;20106;-71
2024/01/28 07:13:54;;;;;;;6.90;4.97;;;2.90;99.90;;;2.05;100.00;101856.56;4201872;28;20118;-71
2024/01/28 07:15:55;;;;;;;6.90;4.80;;;2.90;99.90;;;2.04;100.00;101854.88;4213811;28;20399;-71
2024/01/28 07:17:56;;;;;;;7.03;4.57;;;2.90;99.90;;;2.03;100.00;101849.75;4202551;28;20038;-71
2024/01/28 07:19:57;;;;;;;7.10;5.28;;;2.90;99.90;;;2.01;100.00;101860.22;4218220;28;20024;-71
2024/01/28 07:21:58;;;;;;;8.80;5.25;;;2.90;99.90;;;2.01;100.00;101861.97;4201030;28;20033;-71
2024/01/28 07:23:59;;;;;;;12.13;5.90;;;2.90;99.90;;;2.00;100.00;101858.53;4205062;28;20046;-71
2024/01/28 07:26:00;;;;;;;10.05;5.55;;;2.90;99.90;;;2.01;100.00;101861.97;4220224;28;20036;-71
2024/01/28 07:28:01;;;;;;;9.77;5.88;;;2.90;99.90;;;2.02;100.00;101859.31;4218051;28;20025;-71
2024/01/28 07:30:02;;;;;;;8.55;5.97;;;2.80;99.90;;;2.04;100.00;101857.47;4202140;28;20407;-71
2024/01/28 07:32:04;;;;;;;12.10;6.18;;;2.90;99.90;;;2.06;100.00;101863.44;4217757;28;20632;-71
2024/01/28 07:34:04;;;;;;;10.35;6.03;;;2.90;99.90;;;2.06;100.00;101858.25;4206090;28;20025;-71
2024/01/28 07:36:06;;;;;;;9.93;6.40;;;2.90;99.90;;;2.12;100.00;101867.53;4212878;28;20035;-71
2024/01/28 07:38:11;;;;;;;13.18;7.20;;;2.90;99.90;;;2.13;100.00;101864.84;4202040;28;20418;-71
2024/01/28 07:40:12;;;;;;;11.65;6.80;;;3.00;99.90;;;2.13;100.00;101864.84;4224520;27;20043;-71
2024/01/28 07:42:13;;;;;;;7.97;5.82;;;3.00;99.90;;;2.17;100.00;101858.59;4211028;28;20074;-71
2024/01/28 07:44:14;;;;;;;7.53;5.80;;;3.00;99.90;;;2.24;100.00;101862.53;4220921;28;20019;-71
2024/01/28 07:46:15;;;;;;;9.23;6.07;;;3.00;99.90;;;2.22;100.00;101851.38;4216326;28;20044;-71
2024/01/28 07:48:16;;;;;;;9.25;6.35;;;3.10;99.90;;;2.22;100.00;101863.53;4217735;28;20479;-71
2024/01/28 07:50:18;;;;;;;8.68;5.82;;;3.10;99.90;;;2.29;100.00;101874.50;4217689;28;20028;-71
2024/01/28 07:52:19;;;;;;;8.43;5.60;;;3.10;99.90;;;2.28;100.00;101862.41;4202025;28;20025;-71
2024/01/28 07:54:20;;;;;;;9.07;5.30;;;3.10;99.90;;;2.30;100.00;101876.19;4207788;28;20065;-71
2024/01/28 07:56:21;;;;;;;10.68;5.63;;;3.10;99.90;;;2.30;100.00;101865.78;4202125;28;20074;-71
2024/01/28 07:58:21;;;;;;;10.60;6.65;;;3.10;99.90;;;2.33;100.00;101873.44;4202154;28;20052;-71
2024/01/28 08:00:22;;;;;;;9.20;6.00;;;3.10;99.90;;;2.37;100.00;101872.34;4200542;28;20024;-71
2024/01/28 08:02:23;;;;;;;8.60;5.70;;;3.10;99.90;;;2.38;100.00;101867.09;4201748;28;20035;-71
2024/01/28 08:04:24;;;;;;;13.75;6.22;;;3.20;99.90;;;2.41;100.00;101876.50;4200803;28;20476;-71
2024/01/28 08:06:26;;;;;;;9.48;5.70;;;3.20;99.90;;;2.44;100.00;101876.34;4209402;28;20020;-71
2024/01/28 08:08:27;;;;;;;11.27;6.47;;;3.20;99.90;;;2.49;100.00;101879.56;4218733;28;20031;-71
2024/01/28 08:10:28;;;;;;;7.97;5.18;;;3.30;99.90;;;2.51;100.00;101888.16;4203138;28;20472;-71
2024/01/28 08:12:29;;;;;;;7.63;5.88;;;3.30;99.90;;;2.52;100.00;101895.88;4217427;28;20050;-71
2024/01/28 08:14:30;;;;;;;7.85;5.75;;;3.30;99.90;;;2.57;100.00;101896.47;4211475;28;20020;-71
2024/01/28 08:16:31;;;;;;;13.43;6.43;;;3.30;99.90;;;2.52;100.00;101882.00;4213605;28;20091;-71
2024/01/28 08:18:32;;;;;;;11.98;6.18;;;3.30;99.90;;;2.63;100.00;101898.78;4201695;28;20042;-71
2024/01/28 08:20:33;;;;;;;9.13;6.18;;;3.40;99.90;;;2.65;100.00;101898.72;4201724;28;20036;-71
2024/01/28 08:22:33;;;;;;;10.77;6.25;;;3.40;99.90;;;2.69;100.00;101901.06;4200901;28;20094;-71
2024/01/28 08:24:34;;;;;;;13.48;6.82;;;3.40;99.90;;;2.79;100.00;101906.66;4211286;28;20089;-71
2024/01/28 08:26:36;;;;;;;12.70;6.32;;;3.50;99.90;;;2.86;100.00;101895.03;4204587;28;20101;-71